createdAt,value
2023-09-12T00:00:38.404Z,17.27
2023-09-12T00:03:05.335Z,15.63
2023-09-12T00:05:32.145Z,15.30
2023-09-12T00:07:58.949Z,14.93
2023-09-12T00:10:26.330Z,22.87
2023-09-12T00:12:54.462Z,14.70
2023-09-12T00:15:21.305Z,16.20
2023-09-12T00:17:49.709Z,15.37
2023-09-12T00:20:16.640Z,18.43
2023-09-12T00:22:43.356Z,16.20
2023-09-12T00:25:10.042Z,18.03
2023-09-12T00:27:36.755Z,15.73
2023-09-12T00:30:03.827Z,17.93
2023-09-12T00:32:30.575Z,18.93
2023-09-12T00:34:57.228Z,15.93
2023-09-12T00:37:25.074Z,17.27
2023-09-12T00:39:52.480Z,18.23
2023-09-12T00:42:19.745Z,14.93
2023-09-12T00:44:46.421Z,15.53
2023-09-12T00:47:13.516Z,17.03
2023-09-12T00:49:40.544Z,17.53
2023-09-12T00:52:07.505Z,15.73
2023-09-12T00:54:34.256Z,15.87
2023-09-12T00:57:01.101Z,14.33
2023-09-12T00:59:28.418Z,13.63
2023-09-12T01:01:55.557Z,16.00
2023-09-12T01:04:34.348Z,16.13
2023-09-12T01:07:03.914Z,15.60
2023-09-12T01:09:30.635Z,12.80
2023-09-12T01:11:57.447Z,12.80
2023-09-12T01:14:24.241Z,12.90
2023-09-12T01:16:50.995Z,12.90
2023-09-12T01:19:19.074Z,14.10
2023-09-12T01:22:04.490Z,13.73
2023-09-12T01:24:31.256Z,12.90
2023-09-12T01:27:01.037Z,12.87
2023-09-12T01:29:27.812Z,13.40
2023-09-12T01:31:55.088Z,12.53
2023-09-12T01:34:21.930Z,12.73
2023-09-12T01:36:48.639Z,14.00
2023-09-12T01:39:15.931Z,13.00
2023-09-12T01:41:44.266Z,11.97
2023-09-12T01:44:12.808Z,13.03
2023-09-12T01:46:40.244Z,12.57
2023-09-12T01:49:08.462Z,13.57
2023-09-12T01:51:35.760Z,19.37
2023-09-12T01:54:04.245Z,12.33
2023-09-12T01:56:31.381Z,13.13
2023-09-12T01:58:58.298Z,13.67
2023-09-12T02:01:28.124Z,13.97
2023-09-12T02:03:54.955Z,14.30
2023-09-12T02:06:22.132Z,15.60
2023-09-12T02:08:48.876Z,16.03
2023-09-12T02:11:15.592Z,13.40
2023-09-12T02:13:42.266Z,13.67
2023-09-12T02:16:09.356Z,14.20
2023-09-12T02:18:36.590Z,14.63
2023-09-12T02:21:03.451Z,13.77
2023-09-12T02:23:30.181Z,14.37
2023-09-12T02:25:57.056Z,14.10
2023-09-12T02:28:23.795Z,15.07
2023-09-12T02:30:50.662Z,14.50
2023-09-12T02:33:17.539Z,16.07
2023-09-12T02:35:44.388Z,15.27
2023-09-12T02:38:11.204Z,15.20
2023-09-12T02:40:37.922Z,15.60
2023-09-12T02:43:04.813Z,16.50
2023-09-12T02:45:31.753Z,15.53
2023-09-12T02:47:58.646Z,14.73
2023-09-12T02:50:25.741Z,15.50
2023-09-12T02:52:52.516Z,15.30
2023-09-12T02:55:19.340Z,16.00
2023-09-12T02:57:47.972Z,14.83
2023-09-12T03:00:14.904Z,16.70
2023-09-12T03:02:41.785Z,15.83
2023-09-12T03:05:09.126Z,15.80
2023-09-12T03:07:35.891Z,15.30
2023-09-12T03:10:02.836Z,16.10
2023-09-12T03:12:29.604Z,15.17
2023-09-12T03:14:57.068Z,14.87
2023-09-12T03:17:23.821Z,14.97
2023-09-12T03:19:51.702Z,15.33
2023-09-12T03:22:18.402Z,14.97
2023-09-12T03:24:46.256Z,16.97
2023-09-12T03:27:13.431Z,13.70
2023-09-12T03:29:40.251Z,14.80
2023-09-12T03:32:06.990Z,14.47
2023-09-12T03:34:33.911Z,15.57
2023-09-12T03:37:00.663Z,14.80
2023-09-12T03:39:27.998Z,15.83
2023-09-12T03:41:54.812Z,17.87
2023-09-12T03:44:21.631Z,19.60
2023-09-12T03:46:48.415Z,13.53
2023-09-12T03:49:15.144Z,15.43
2023-09-12T03:51:42.041Z,15.60
2023-09-12T03:54:08.890Z,12.70
2023-09-12T03:56:35.588Z,14.93
2023-09-12T03:59:02.294Z,14.67
2023-09-12T04:01:29.218Z,13.33
2023-09-12T04:03:56.398Z,14.00
2023-09-12T04:06:23.307Z,14.20
2023-09-12T04:08:50.097Z,15.97
2023-09-12T04:11:16.810Z,14.50
2023-09-12T04:13:45.013Z,16.97
2023-09-12T04:16:11.902Z,17.70
2023-09-12T04:18:39.179Z,14.50
2023-09-12T04:21:06.036Z,13.90
2023-09-12T04:23:32.885Z,13.07
2023-09-12T04:26:04.175Z,16.00
2023-09-12T04:28:31.398Z,14.93
2023-09-12T04:31:04.658Z,14.23
2023-09-12T04:33:31.627Z,14.17
2023-09-12T04:35:59.393Z,14.00
2023-09-12T04:38:27.545Z,12.07
2023-09-12T04:40:55.310Z,12.63
2023-09-12T04:43:22.131Z,12.53
2023-09-12T04:45:49.592Z,13.50
2023-09-12T04:48:17.372Z,13.87
2023-09-12T04:50:44.574Z,15.43
2023-09-12T04:53:11.616Z,13.13
2023-09-12T04:55:38.945Z,13.83
2023-09-12T04:58:05.927Z,14.57
2023-09-12T05:00:33.546Z,12.87
2023-09-12T05:03:00.832Z,12.80
2023-09-12T05:05:27.598Z,14.70
2023-09-12T05:07:54.514Z,22.27
2023-09-12T05:10:21.319Z,17.03
2023-09-12T05:12:48.635Z,14.00
2023-09-12T05:15:15.673Z,12.70
2023-09-12T05:17:42.428Z,14.07
2023-09-12T05:20:09.466Z,22.07
2023-09-12T05:22:36.139Z,22.63
2023-09-12T05:25:02.987Z,15.83
2023-09-12T05:27:29.880Z,12.40
2023-09-12T05:29:56.659Z,13.20
2023-09-12T05:32:23.513Z,12.10
2023-09-12T05:34:52.196Z,15.20
2023-09-12T05:37:21.755Z,15.40
2023-09-12T05:39:48.513Z,12.40
2023-09-12T05:42:21.279Z,12.67
2023-09-12T05:44:49.947Z,15.63
2023-09-12T05:47:16.781Z,12.13
2023-09-12T05:49:43.629Z,14.07
2023-09-12T05:52:10.516Z,14.70
2023-09-12T05:54:38.141Z,14.13
2023-09-12T05:57:05.312Z,12.47
2023-09-12T05:59:35.412Z,17.73
2023-09-12T06:02:02.766Z,13.60
2023-09-12T06:04:29.779Z,13.83
2023-09-12T06:06:56.650Z,15.83
2023-09-12T06:09:23.345Z,16.13
2023-09-12T06:11:50.052Z,13.00
2023-09-12T06:14:16.714Z,17.60
2023-09-12T06:16:43.554Z,12.90
2023-09-12T06:19:10.296Z,14.17
2023-09-12T06:21:37.054Z,19.07
2023-09-12T06:24:11.941Z,14.03
2023-09-12T06:26:39.000Z,17.80
2023-09-12T06:29:05.957Z,16.40
2023-09-12T06:31:32.860Z,15.30
2023-09-12T06:33:59.668Z,17.63
2023-09-12T06:36:26.826Z,17.30
2023-09-12T06:38:53.630Z,13.87
2023-09-12T06:41:20.798Z,18.20
2023-09-12T06:43:47.709Z,17.10
2023-09-12T06:46:14.966Z,11.47
2023-09-12T06:48:41.904Z,13.67
2023-09-12T06:51:15.159Z,13.73
2023-09-12T06:53:44.405Z,13.17
2023-09-12T06:56:11.606Z,15.27
2023-09-12T06:58:38.362Z,15.43
2023-09-12T07:01:06.348Z,15.00
2023-09-12T07:03:33.836Z,17.77
2023-09-12T07:06:00.760Z,19.20
2023-09-12T07:08:29.958Z,16.67
2023-09-12T07:10:58.097Z,16.53
2023-09-12T07:13:25.103Z,16.63
2023-09-12T07:15:52.114Z,18.37
2023-09-12T07:18:20.119Z,13.43
2023-09-12T07:20:46.942Z,17.10
2023-09-12T07:23:13.656Z,19.30
2023-09-12T07:25:41.557Z,14.67
2023-09-12T07:28:11.016Z,18.47
2023-09-12T07:30:38.590Z,17.73
2023-09-12T07:33:05.637Z,14.67
2023-09-12T07:35:32.404Z,15.73
2023-09-12T07:37:59.272Z,20.67
2023-09-12T07:40:25.947Z,15.90
2023-09-12T07:42:52.809Z,13.13
2023-09-12T07:45:19.736Z,20.30
2023-09-12T07:47:46.630Z,15.40
2023-09-12T07:50:13.359Z,18.50
2023-09-12T07:52:40.033Z,17.50
2023-09-12T07:55:08.025Z,15.40
2023-09-12T07:57:35.361Z,18.83
2023-09-12T08:00:03.245Z,16.17
2023-09-12T08:02:38.460Z,13.33
2023-09-12T08:05:05.791Z,20.30
2023-09-12T08:07:32.532Z,13.27
2023-09-12T08:09:59.259Z,17.93
2023-09-12T08:12:26.922Z,20.95
2023-09-12T08:14:54.150Z,14.53
2023-09-12T08:17:20.935Z,15.52
2023-09-12T08:19:47.622Z,17.17
2023-09-12T08:22:14.754Z,14.60
2023-09-12T08:24:41.708Z,17.02
2023-09-12T08:27:08.498Z,14.35
2023-09-12T08:29:35.467Z,15.57
2023-09-12T08:32:02.554Z,11.30
2023-09-12T08:34:29.412Z,16.05
2023-09-12T08:36:56.360Z,12.48
2023-09-12T08:39:26.764Z,14.10
2023-09-12T08:41:54.158Z,12.73
2023-09-12T08:44:21.676Z,13.23
2023-09-12T08:46:48.653Z,14.00
2023-09-12T08:49:16.556Z,15.80
2023-09-12T08:51:43.380Z,11.18
2023-09-12T08:54:10.610Z,12.43
2023-09-12T08:56:39.789Z,10.93
2023-09-12T08:59:06.521Z,11.35
2023-09-12T09:01:33.584Z,13.32
2023-09-12T09:04:02.350Z,12.63
2023-09-12T09:06:31.274Z,11.65
2023-09-12T09:08:58.774Z,12.02
2023-09-12T09:11:28.679Z,12.10
2023-09-12T09:13:55.965Z,10.90
2023-09-12T09:16:23.622Z,11.48
2023-09-12T09:19:11.205Z,12.18
2023-09-12T09:21:39.200Z,11.38
2023-09-12T09:24:10.353Z,13.05
2023-09-12T09:26:46.999Z,12.13
2023-09-12T09:29:18.000Z,12.00
2023-09-12T09:31:45.354Z,13.73
2023-09-12T09:34:17.308Z,12.70
2023-09-12T09:36:45.431Z,15.75
2023-09-12T09:39:13.478Z,11.40
2023-09-12T09:41:40.455Z,12.43
2023-09-12T09:44:10.387Z,10.57
2023-09-12T09:46:38.375Z,13.55
2023-09-12T09:49:07.268Z,11.48
2023-09-12T09:51:41.038Z,11.57
2023-09-12T09:54:08.456Z,9.80
2023-09-12T09:56:45.616Z,12.68
2023-09-12T09:59:14.834Z,13.77
2023-09-12T10:01:42.476Z,11.98
2023-09-12T10:04:09.510Z,10.20
2023-09-12T10:06:40.371Z,13.77
2023-09-12T10:09:09.038Z,16.00
2023-09-12T10:11:35.978Z,13.57
2023-09-12T10:14:05.940Z,14.27
2023-09-12T10:16:33.471Z,9.27
2023-09-12T10:19:08.096Z,10.65
2023-09-12T10:21:35.209Z,10.75
2023-09-12T10:24:03.631Z,11.00
2023-09-12T10:26:32.112Z,11.70
2023-09-12T10:29:00.431Z,11.38
2023-09-12T10:31:27.712Z,10.88
2023-09-12T10:33:55.160Z,12.13
2023-09-12T10:36:23.387Z,15.10
2023-09-12T10:38:50.254Z,10.75
2023-09-12T10:41:17.296Z,10.60
2023-09-12T10:43:47.847Z,10.25
2023-09-12T10:46:14.668Z,10.90
2023-09-12T10:48:41.780Z,12.15
2023-09-12T10:51:09.221Z,11.93
2023-09-12T10:53:36.477Z,11.25
2023-09-12T10:56:09.221Z,10.73
2023-09-12T10:58:54.942Z,12.02
2023-09-12T11:01:28.610Z,14.18
2023-09-12T11:03:56.740Z,9.40
2023-09-12T11:06:29.188Z,10.10
2023-09-12T11:09:14.267Z,11.73
2023-09-12T11:11:45.339Z,11.90
2023-09-12T11:14:12.021Z,12.93
2023-09-12T11:16:40.142Z,11.43
2023-09-12T11:19:16.583Z,11.70
2023-09-12T11:21:47.918Z,12.85
2023-09-12T11:24:15.213Z,11.00
2023-09-12T11:26:55.095Z,12.45
2023-09-12T11:29:21.890Z,13.90
2023-09-12T11:31:55.541Z,15.05
2023-09-12T11:34:22.313Z,17.15
2023-09-12T11:36:49.061Z,15.18
2023-09-12T11:39:26.124Z,13.35
2023-09-12T11:41:52.940Z,18.45
2023-09-12T11:44:20.783Z,12.10
2023-09-12T11:46:51.395Z,11.45
2023-09-12T11:49:18.298Z,15.65
2023-09-12T11:51:54.908Z,15.18
2023-09-12T11:54:25.483Z,15.02
2023-09-12T11:56:57.756Z,11.48
2023-09-12T11:59:24.618Z,10.75
2023-09-12T12:01:51.354Z,10.18
2023-09-12T12:04:18.176Z,10.80
2023-09-12T12:06:45.136Z,10.50
2023-09-12T12:09:12.312Z,11.20
2023-09-12T12:11:40.574Z,12.30
2023-09-12T12:14:14.969Z,13.43
2023-09-12T12:16:44.958Z,10.05
2023-09-12T12:19:12.759Z,11.75
2023-09-12T12:21:43.393Z,10.40
2023-09-12T12:24:14.527Z,11.52
2023-09-12T12:26:44.706Z,10.18
2023-09-12T12:29:11.899Z,10.27
2023-09-12T12:31:38.912Z,12.23
2023-09-12T12:34:56.128Z,9.52
2023-09-12T12:36:58.049Z,9.30
2023-09-12T12:39:25.657Z,8.32
2023-09-12T12:41:53.783Z,11.27
2023-09-12T12:44:21.074Z,9.48
2023-09-12T12:46:54.718Z,8.80
2023-09-12T12:49:22.319Z,9.88
2023-09-12T12:51:49.499Z,10.05
2023-09-12T12:54:16.442Z,11.77
2023-09-12T12:56:45.589Z,9.63
2023-09-12T12:59:12.395Z,9.85
2023-09-12T13:01:39.654Z,9.23
2023-09-12T13:04:07.889Z,10.38
2023-09-12T13:06:37.163Z,8.70
2023-09-12T13:09:09.377Z,8.20
2023-09-12T13:11:36.405Z,7.97
2023-09-12T13:14:09.847Z,8.05
2023-09-12T13:16:37.143Z,9.05
2023-09-12T13:19:04.472Z,14.02
2023-09-12T13:21:33.304Z,8.48
2023-09-12T13:24:02.556Z,8.38
2023-09-12T13:26:30.629Z,8.35
2023-09-12T13:28:58.283Z,11.50
2023-09-12T13:31:25.213Z,9.02
2023-09-12T13:33:52.129Z,9.85
2023-09-12T13:36:19.035Z,7.80
2023-09-12T13:38:48.784Z,8.13
2023-09-12T13:41:15.544Z,7.90
2023-09-12T13:43:42.778Z,11.20
2023-09-12T13:46:11.859Z,10.68
2023-09-12T13:48:38.721Z,8.85
2023-09-12T13:51:05.554Z,8.95
2023-09-12T13:53:32.780Z,8.65
2023-09-12T13:56:10.537Z,8.50
2023-09-12T13:58:39.362Z,7.70
2023-09-12T14:01:10.966Z,8.13
2023-09-12T14:03:39.514Z,8.52
2023-09-12T14:06:06.671Z,7.43
2023-09-12T14:08:33.638Z,8.60
2023-09-12T14:11:01.396Z,7.78
2023-09-12T14:13:29.260Z,9.00
2023-09-12T14:15:57.533Z,8.25
2023-09-12T14:18:26.720Z,8.13
2023-09-12T14:20:56.928Z,8.48
2023-09-12T14:23:24.067Z,8.18
2023-09-12T14:25:51.082Z,8.00
2023-09-12T14:28:19.211Z,9.52
2023-09-12T14:30:47.012Z,8.10
2023-09-12T14:33:16.279Z,10.18
2023-09-12T14:35:45.309Z,10.75
2023-09-12T14:38:12.428Z,8.98
2023-09-12T14:40:43.434Z,8.52
2023-09-12T14:43:12.298Z,7.97
2023-09-12T14:45:39.788Z,7.55
2023-09-12T14:48:08.054Z,7.82
2023-09-12T14:50:41.297Z,9.68
2023-09-12T14:53:11.723Z,9.77
2023-09-12T14:55:38.767Z,7.40
2023-09-12T14:58:05.739Z,8.60
2023-09-12T15:00:34.662Z,7.65
2023-09-12T15:03:04.211Z,7.72
2023-09-12T15:05:31.205Z,8.30
2023-09-12T15:07:58.198Z,12.40
2023-09-12T15:10:25.012Z,7.93
2023-09-12T15:12:52.418Z,7.25
2023-09-12T15:15:19.237Z,8.40
2023-09-12T15:17:47.601Z,10.40
2023-09-12T15:20:14.458Z,8.38
2023-09-12T15:22:44.373Z,7.93
2023-09-12T15:25:11.553Z,7.88
2023-09-12T15:27:38.631Z,9.65
2023-09-12T15:30:07.074Z,10.43
2023-09-12T15:32:34.718Z,8.23
2023-09-12T15:35:04.002Z,11.07
2023-09-12T15:37:31.281Z,7.47
2023-09-12T15:39:58.179Z,7.80
2023-09-12T15:42:36.713Z,7.97
2023-09-12T15:45:08.965Z,10.68
2023-09-12T15:47:35.835Z,8.68
2023-09-12T15:50:02.649Z,9.45
2023-09-12T15:52:29.463Z,9.35
2023-09-12T15:54:56.286Z,8.57
2023-09-12T15:57:23.362Z,7.85
2023-09-12T15:59:50.128Z,8.90
2023-09-12T16:02:17.322Z,35.80
2023-09-12T16:04:44.182Z,24.83
2023-09-12T16:07:11.287Z,890.97
2023-09-12T16:09:38.080Z,560.35
2023-09-12T16:12:05.116Z,1651.28
2023-09-12T16:14:31.921Z,938.03
2023-09-12T16:17:01.107Z,1430.07
2023-09-12T16:19:27.827Z,83.82
2023-09-12T16:21:54.674Z,33.78
2023-09-12T16:24:23.353Z,15.68
2023-09-12T16:26:50.493Z,11.95
2023-09-12T16:29:17.459Z,8.77
2023-09-12T16:31:44.246Z,9.00
2023-09-12T16:34:11.112Z,10.65
2023-09-12T16:36:38.707Z,9.80
2023-09-12T16:39:05.778Z,8.63
2023-09-12T16:41:34.108Z,9.85
2023-09-12T16:44:00.852Z,10.30
2023-09-12T16:46:27.693Z,9.75
2023-09-12T16:48:54.541Z,8.90
2023-09-12T16:51:22.145Z,9.63
2023-09-12T16:53:50.929Z,9.60
2023-09-12T16:56:17.899Z,9.45
2023-09-12T16:58:44.735Z,9.73
2023-09-12T17:01:11.579Z,9.82
2023-09-12T17:03:38.609Z,9.75
2023-09-12T17:06:05.580Z,11.95
2023-09-12T17:08:32.811Z,9.63
2023-09-12T17:10:59.516Z,10.18
2023-09-12T17:13:27.375Z,11.27
2023-09-12T17:15:54.353Z,10.02
2023-09-12T17:18:21.213Z,9.57
2023-09-12T17:20:48.023Z,9.90
2023-09-12T17:23:14.829Z,11.73
2023-09-12T17:25:41.582Z,18.92
2023-09-12T17:28:08.425Z,10.95
2023-09-12T17:30:35.340Z,10.00
2023-09-12T17:33:02.621Z,10.98
2023-09-12T17:35:29.380Z,14.25
2023-09-12T17:37:56.190Z,11.88
2023-09-12T17:40:23.385Z,11.35
2023-09-12T17:42:50.963Z,10.73
2023-09-12T17:45:17.781Z,11.55
2023-09-12T17:47:44.557Z,11.90
2023-09-12T17:50:11.301Z,11.70
2023-09-12T17:52:38.901Z,12.45
2023-09-12T17:55:05.734Z,11.93
2023-09-12T17:57:32.482Z,13.48
2023-09-12T17:59:59.250Z,12.13
2023-09-12T18:02:26.091Z,11.20
2023-09-12T18:04:52.913Z,11.20
2023-09-12T18:07:20.138Z,13.40
2023-09-12T18:09:47.013Z,10.97
2023-09-12T18:12:13.891Z,12.77
2023-09-12T18:14:41.087Z,10.60
2023-09-12T18:17:07.852Z,10.80
2023-09-12T18:19:35.262Z,10.90
2023-09-12T18:22:02.062Z,10.93
2023-09-12T18:24:28.959Z,10.47
2023-09-12T18:26:55.714Z,11.90
2023-09-12T18:29:23.627Z,11.77
2023-09-12T18:31:50.559Z,12.20
2023-09-12T18:34:18.290Z,11.90
2023-09-12T18:36:45.212Z,11.33
2023-09-12T18:39:12.013Z,12.30
2023-09-12T18:41:38.923Z,13.23
2023-09-12T18:44:05.848Z,11.60
2023-09-12T18:46:33.358Z,11.13
2023-09-12T18:49:00.302Z,11.20
2023-09-12T18:51:27.110Z,10.67
2023-09-12T18:53:53.825Z,10.47
2023-09-12T18:56:20.543Z,11.87
2023-09-12T18:58:47.316Z,11.20
2023-09-12T19:01:14.225Z,11.97
2023-09-12T19:03:41.295Z,12.73
2023-09-12T19:06:09.431Z,11.87
2023-09-12T19:08:38.169Z,11.60
2023-09-12T19:11:05.607Z,12.33
2023-09-12T19:13:32.364Z,12.57
2023-09-12T19:15:59.218Z,11.93
2023-09-12T19:18:26.024Z,12.57
2023-09-12T19:20:52.721Z,12.90
2023-09-12T19:23:19.743Z,13.33
2023-09-12T19:25:49.275Z,12.73
2023-09-12T19:28:18.168Z,13.70
2023-09-12T19:30:45.316Z,15.07
2023-09-12T19:33:12.202Z,12.83
2023-09-12T19:35:41.722Z,12.33
2023-09-12T19:38:08.757Z,14.80
2023-09-12T19:40:37.313Z,12.40
2023-09-12T19:43:04.403Z,13.90
2023-09-12T19:45:31.304Z,12.03
2023-09-12T19:48:01.315Z,13.27
2023-09-12T19:50:30.756Z,12.20
2023-09-12T19:52:57.521Z,12.53
2023-09-12T19:55:25.885Z,12.73
2023-09-12T19:57:53.288Z,11.40
2023-09-12T20:00:20.082Z,10.53
2023-09-12T20:02:49.942Z,10.40
2023-09-12T20:05:21.597Z,10.33
2023-09-12T20:07:50.375Z,10.93
2023-09-12T20:10:20.859Z,9.83
2023-09-12T20:12:47.720Z,9.00
2023-09-12T20:15:14.478Z,9.80
2023-09-12T20:17:41.386Z,8.67
2023-09-12T20:20:10.285Z,10.63
2023-09-12T20:22:38.221Z,8.50
2023-09-12T20:25:05.217Z,8.87
2023-09-12T20:27:32.019Z,9.27
2023-09-12T20:29:59.551Z,9.00
2023-09-12T20:32:40.418Z,9.33
2023-09-12T20:35:17.786Z,8.17
2023-09-12T20:37:46.377Z,8.20
2023-09-12T20:40:15.404Z,10.43
2023-09-12T20:42:42.201Z,12.80
2023-09-12T20:45:09.009Z,10.37
2023-09-12T20:47:38.084Z,7.43
2023-09-12T20:50:07.003Z,9.63
2023-09-12T20:52:33.757Z,9.47
2023-09-12T20:55:00.499Z,9.67
2023-09-12T20:57:27.211Z,9.13
2023-09-12T20:59:54.740Z,7.53
2023-09-12T21:02:22.993Z,7.50
2023-09-12T21:04:49.686Z,10.13
2023-09-12T21:07:17.588Z,8.93
2023-09-12T21:09:44.424Z,8.43
2023-09-12T21:12:11.110Z,9.57
2023-09-12T21:14:37.927Z,12.47
2023-09-12T21:17:04.887Z,8.73
2023-09-12T21:19:32.206Z,8.23
2023-09-12T21:22:03.533Z,7.63
2023-09-12T21:24:30.367Z,9.30
2023-09-12T21:26:57.042Z,8.30
2023-09-12T21:29:23.872Z,10.30
2023-09-12T21:31:50.727Z,9.93
2023-09-12T21:34:17.573Z,12.10
2023-09-12T21:36:44.374Z,11.67
2023-09-12T21:39:11.393Z,9.70
2023-09-12T21:41:38.139Z,10.03
2023-09-12T21:44:04.961Z,9.77
2023-09-12T21:46:31.789Z,10.07
2023-09-12T21:48:58.782Z,9.67
2023-09-12T21:51:26.826Z,10.50
2023-09-12T21:53:53.632Z,11.13
2023-09-12T21:56:20.311Z,12.07
2023-09-12T21:58:46.992Z,11.93
2023-09-12T22:01:13.736Z,9.30
2023-09-12T22:03:41.105Z,10.63
2023-09-12T22:06:07.913Z,9.60
2023-09-12T22:08:34.611Z,9.17
2023-09-12T22:11:01.359Z,10.03
2023-09-12T22:13:28.718Z,10.57
2023-09-12T22:15:55.484Z,10.57
2023-09-12T22:18:22.506Z,11.20
2023-09-12T22:20:49.219Z,9.87
2023-09-12T22:23:16.009Z,10.17
2023-09-12T22:25:42.739Z,11.80
2023-09-12T22:28:09.510Z,16.07
2023-09-12T22:30:38.290Z,10.97
2023-09-12T22:33:06.404Z,10.93
2023-09-12T22:35:33.280Z,10.27
2023-09-12T22:38:00.046Z,10.13
2023-09-12T22:40:26.801Z,13.07
2023-09-12T22:42:53.626Z,10.83
2023-09-12T22:45:20.338Z,12.67
2023-09-12T22:47:47.051Z,12.13
2023-09-12T22:50:14.146Z,25.00
2023-09-12T22:52:42.156Z,24.90
2023-09-12T22:55:09.034Z,18.10
2023-09-12T22:57:37.507Z,10.97
2023-09-12T23:00:04.737Z,11.17
2023-09-12T23:02:31.521Z,12.90
2023-09-12T23:04:58.359Z,9.93
2023-09-12T23:07:25.114Z,10.23
2023-09-12T23:09:52.044Z,10.57
2023-09-12T23:12:18.818Z,9.77
2023-09-12T23:14:46.312Z,10.40
2023-09-12T23:17:13.032Z,9.40
2023-09-12T23:19:39.779Z,11.10
2023-09-12T23:22:06.511Z,10.53
2023-09-12T23:24:38.153Z,9.10
2023-09-12T23:27:06.900Z,9.47
2023-09-12T23:29:35.054Z,10.83
2023-09-12T23:32:01.897Z,9.23
2023-09-12T23:34:29.773Z,9.07
2023-09-12T23:36:57.292Z,9.70
2023-09-12T23:39:25.071Z,8.93
2023-09-12T23:41:52.611Z,9.33
2023-09-12T23:44:19.355Z,9.57
2023-09-12T23:46:46.125Z,9.13
2023-09-12T23:49:12.957Z,8.63
2023-09-12T23:51:39.876Z,9.37
2023-09-12T23:54:08.865Z,10.20
2023-09-12T23:56:37.052Z,8.97
2023-09-12T23:59:32.037Z,9.17
